createdAt,value
2022-11-30T00:01:26.340Z,62.73
2022-11-30T00:03:54.857Z,59.13
2022-11-30T00:06:23.874Z,68.90
2022-11-30T00:08:54.014Z,65.20
2022-11-30T00:11:22.906Z,65.97
2022-11-30T00:13:52.409Z,71.03
2022-11-30T00:16:20.515Z,62.83
2022-11-30T00:18:52.606Z,68.07
2022-11-30T00:21:21.011Z,65.97
2022-11-30T00:23:49.113Z,62.90
2022-11-30T00:26:18.932Z,67.80
2022-11-30T00:28:47.729Z,65.17
2022-11-30T00:31:19.671Z,64.77
2022-11-30T00:33:49.614Z,68.57
2022-11-30T00:36:20.076Z,70.63
2022-11-30T00:38:48.598Z,64.57
2022-11-30T00:41:17.054Z,62.90
2022-11-30T00:43:45.182Z,75.67
2022-11-30T00:46:13.594Z,72.70
2022-11-30T00:48:42.227Z,70.70
2022-11-30T00:51:12.997Z,66.40
2022-11-30T00:53:41.960Z,62.00
2022-11-30T00:56:10.947Z,63.87
2022-11-30T00:58:39.000Z,66.67
2022-11-30T01:01:07.493Z,67.27
2022-11-30T01:03:37.080Z,69.87
2022-11-30T01:06:05.573Z,65.37
2022-11-30T01:08:35.533Z,62.70
2022-11-30T01:11:08.847Z,61.13
2022-11-30T01:13:36.875Z,59.60
2022-11-30T01:16:13.138Z,62.27
2022-11-30T01:18:41.245Z,63.23
2022-11-30T01:21:10.732Z,63.73
2022-11-30T01:23:40.364Z,67.93
2022-11-30T01:26:08.830Z,60.43
2022-11-30T01:28:37.188Z,58.73
2022-11-30T01:31:07.085Z,60.90
2022-11-30T01:33:35.265Z,64.23
2022-11-30T01:36:04.787Z,58.70
2022-11-30T01:38:34.267Z,60.30
2022-11-30T01:41:04.473Z,61.33
2022-11-30T01:43:40.561Z,56.10
2022-11-30T01:46:24.539Z,70.83
2022-11-30T01:48:59.016Z,58.27
2022-11-30T01:51:29.584Z,58.97
2022-11-30T01:53:57.709Z,58.37
2022-11-30T01:56:27.222Z,56.10
2022-11-30T01:58:55.316Z,59.60
2022-11-30T02:01:23.351Z,57.87
2022-11-30T02:03:57.911Z,55.07
2022-11-30T02:06:26.413Z,54.93
2022-11-30T02:08:56.007Z,54.80
2022-11-30T02:11:27.705Z,54.67
2022-11-30T02:14:13.195Z,54.60
2022-11-30T02:16:53.359Z,54.40
2022-11-30T02:20:00.933Z,52.43
2022-11-30T02:22:44.036Z,56.87
2022-11-30T02:25:20.304Z,59.63
2022-11-30T02:28:07.092Z,60.77
2022-11-30T02:30:41.929Z,56.57
2022-11-30T02:33:14.451Z,59.37
2022-11-30T02:35:48.046Z,58.27
2022-11-30T02:38:22.637Z,55.03
2022-11-30T02:40:50.647Z,54.20
2022-11-30T02:43:20.435Z,52.20
2022-11-30T02:45:59.579Z,53.60
2022-11-30T02:48:33.515Z,54.67
2022-11-30T02:51:05.776Z,49.90
2022-11-30T02:53:33.986Z,56.37
2022-11-30T02:56:03.063Z,54.30
2022-11-30T02:58:31.396Z,54.80
2022-11-30T03:01:00.751Z,50.80
2022-11-30T03:03:28.762Z,55.73
2022-11-30T03:05:56.800Z,51.33
2022-11-30T03:08:24.831Z,53.43
2022-11-30T03:10:52.864Z,53.37
2022-11-30T03:13:20.872Z,53.93
2022-11-30T03:15:49.019Z,49.57
2022-11-30T03:18:18.402Z,52.33
2022-11-30T03:20:46.392Z,52.10
2022-11-30T03:23:14.397Z,48.40
2022-11-30T03:25:42.385Z,48.93
2022-11-30T03:28:10.592Z,50.27
2022-11-30T03:30:38.575Z,45.53
2022-11-30T03:33:06.581Z,44.60
2022-11-30T03:35:35.973Z,46.83
2022-11-30T03:38:03.971Z,46.80
2022-11-30T03:40:32.209Z,47.60
2022-11-30T03:43:00.203Z,51.00
2022-11-30T03:45:28.224Z,49.10
2022-11-30T03:47:56.212Z,46.03
2022-11-30T03:50:24.275Z,47.27
2022-11-30T03:52:53.630Z,48.57
2022-11-30T03:55:21.641Z,49.77
2022-11-30T03:57:51.442Z,47.33
2022-11-30T04:00:21.024Z,46.33
2022-11-30T04:02:49.119Z,53.20
2022-11-30T04:05:17.367Z,48.27
2022-11-30T04:07:45.410Z,45.63
2022-11-30T04:10:14.834Z,51.97
2022-11-30T04:12:42.834Z,49.93
2022-11-30T04:15:11.748Z,51.23
2022-11-30T04:17:39.735Z,50.47
2022-11-30T04:20:08.899Z,55.40
2022-11-30T04:22:36.879Z,54.63
2022-11-30T04:25:05.216Z,55.60
2022-11-30T04:27:34.540Z,55.50
2022-11-30T04:30:02.983Z,55.00
2022-11-30T04:32:30.966Z,56.47
2022-11-30T04:34:58.988Z,55.13
2022-11-30T04:37:26.976Z,52.97
2022-11-30T04:39:54.988Z,54.87
2022-11-30T04:42:23.306Z,49.63
2022-11-30T04:44:52.647Z,54.10
2022-11-30T04:47:20.771Z,54.90
2022-11-30T04:49:48.764Z,56.90
2022-11-30T04:52:16.959Z,56.50
2022-11-30T04:54:45.583Z,56.43
2022-11-30T04:57:13.890Z,53.30
2022-11-30T04:59:42.075Z,53.67
2022-11-30T05:02:11.638Z,56.83
2022-11-30T05:04:39.991Z,53.10
2022-11-30T05:07:08.178Z,58.53
2022-11-30T05:09:36.442Z,54.23
2022-11-30T05:12:04.615Z,53.27
2022-11-30T05:14:33.098Z,52.80
2022-11-30T05:17:01.078Z,49.67
2022-11-30T05:19:30.435Z,52.40
2022-11-30T05:21:58.436Z,46.27
2022-11-30T05:24:26.418Z,50.97
2022-11-30T05:26:54.399Z,54.10
2022-11-30T05:29:22.354Z,51.40
2022-11-30T05:31:52.915Z,54.13
2022-11-30T05:34:20.996Z,57.20
2022-11-30T05:36:50.348Z,56.67
2022-11-30T05:39:18.367Z,53.93
2022-11-30T05:41:46.439Z,58.37
2022-11-30T05:44:15.052Z,54.77
2022-11-30T05:46:43.153Z,60.13
2022-11-30T05:49:13.795Z,54.40
2022-11-30T05:51:42.260Z,53.33
2022-11-30T05:54:11.697Z,52.87
2022-11-30T05:56:39.778Z,55.40
2022-11-30T05:59:07.767Z,55.13
2022-11-30T06:01:35.788Z,56.73
2022-11-30T06:04:08.931Z,52.33
2022-11-30T06:06:37.135Z,50.53
2022-11-30T06:09:05.316Z,59.63
2022-11-30T06:11:34.719Z,57.00
2022-11-30T06:14:02.736Z,50.50
2022-11-30T06:16:31.579Z,55.27
2022-11-30T06:18:59.632Z,53.63
2022-11-30T06:21:27.631Z,58.37
2022-11-30T06:23:55.623Z,53.97
2022-11-30T06:26:24.117Z,55.60
2022-11-30T06:28:53.444Z,59.87
2022-11-30T06:31:21.572Z,55.97
2022-11-30T06:33:50.452Z,56.60
2022-11-30T06:36:23.382Z,55.97
2022-11-30T06:38:51.407Z,52.93
2022-11-30T06:41:20.385Z,50.87
2022-11-30T06:43:48.435Z,51.33
2022-11-30T06:46:17.855Z,55.13
2022-11-30T06:48:49.585Z,57.80
2022-11-30T06:51:17.605Z,52.20
2022-11-30T06:53:46.183Z,54.37
2022-11-30T06:56:14.452Z,52.70
2022-11-30T06:58:43.047Z,49.93
2022-11-30T07:01:13.030Z,53.77
2022-11-30T07:03:43.375Z,52.83
2022-11-30T07:06:13.681Z,53.33
2022-11-30T07:08:43.011Z,53.20
2022-11-30T07:11:12.788Z,51.30
2022-11-30T07:13:41.002Z,45.97
2022-11-30T07:16:12.680Z,45.70
2022-11-30T07:18:42.430Z,44.90
2022-11-30T07:21:11.784Z,45.47
2022-11-30T07:23:57.340Z,42.90
2022-11-30T07:26:25.980Z,46.40
2022-11-30T07:28:59.212Z,48.73
2022-11-30T07:31:29.077Z,46.87
2022-11-30T07:34:00.050Z,48.33
2022-11-30T07:36:30.208Z,51.73
2022-11-30T07:38:58.370Z,50.70
2022-11-30T07:41:26.420Z,52.33
2022-11-30T07:43:54.451Z,52.73
2022-11-30T07:46:22.591Z,52.93
2022-11-30T07:48:50.751Z,56.10
2022-11-30T07:51:22.285Z,52.37
2022-11-30T07:53:50.825Z,46.43
2022-11-30T07:56:21.145Z,45.53
2022-11-30T07:58:49.692Z,44.67
2022-11-30T08:01:19.909Z,43.27
2022-11-30T08:03:50.573Z,43.30
2022-11-30T08:06:21.781Z,41.13
2022-11-30T08:08:51.179Z,42.97
2022-11-30T08:11:22.049Z,41.80
2022-11-30T08:13:50.476Z,46.70
2022-11-30T08:16:20.623Z,50.57
2022-11-30T08:18:48.826Z,55.20
2022-11-30T08:21:20.120Z,51.10
2022-11-30T08:23:49.759Z,55.97
2022-11-30T08:26:19.779Z,55.97
2022-11-30T08:28:51.969Z,56.50
2022-11-30T08:31:21.987Z,64.63
2022-11-30T08:33:51.112Z,63.37
2022-11-30T08:36:23.129Z,67.40
2022-11-30T08:38:51.704Z,59.90
2022-11-30T08:41:21.315Z,55.10
2022-11-30T08:43:52.650Z,54.90
2022-11-30T08:49:26.315Z,50.43
2022-11-30T08:54:46.599Z,44.03
2022-11-30T08:57:15.005Z,45.10
2022-11-30T08:59:43.006Z,45.67
2022-11-30T09:02:12.267Z,44.63
2022-11-30T09:04:40.407Z,45.57
2022-11-30T09:07:12.311Z,49.10
2022-11-30T09:09:40.446Z,51.90
2022-11-30T09:12:08.833Z,46.03
2022-11-30T09:14:36.852Z,45.57
2022-11-30T09:17:05.617Z,45.37
2022-11-30T09:19:33.879Z,41.77
2022-11-30T09:22:01.859Z,48.00
2022-11-30T09:24:31.473Z,46.77
2022-11-30T09:26:59.460Z,52.87
2022-11-30T09:29:27.471Z,51.13
2022-11-30T09:31:55.479Z,48.53
2022-11-30T09:34:23.728Z,53.03
2022-11-30T09:36:51.741Z,52.40
2022-11-30T09:39:20.160Z,46.47
2022-11-30T09:42:06.913Z,48.90
2022-11-30T09:44:43.815Z,47.40
2022-11-30T09:47:21.172Z,45.90
2022-11-30T09:49:49.737Z,38.90
2022-11-30T09:52:27.361Z,39.93
2022-11-30T09:54:57.520Z,38.77
2022-11-30T09:57:32.632Z,37.97
2022-11-30T10:00:04.382Z,36.83
2022-11-30T10:02:35.405Z,34.30
2022-11-30T10:05:03.547Z,35.57
2022-11-30T10:07:54.474Z,33.93
2022-11-30T10:10:33.031Z,31.90
2022-11-30T10:13:20.489Z,34.23
2022-11-30T10:16:01.546Z,34.43
2022-11-30T10:18:40.689Z,31.53
2022-11-30T10:21:22.116Z,32.33
2022-11-30T10:24:03.795Z,35.13
2022-11-30T10:26:35.275Z,36.47
2022-11-30T10:29:15.980Z,34.40
2022-11-30T10:31:45.844Z,34.00
2022-11-30T10:34:22.209Z,31.90
2022-11-30T10:36:55.995Z,32.07
2022-11-30T10:39:34.572Z,31.27
2022-11-30T10:42:09.613Z,28.50
2022-11-30T10:44:43.786Z,33.17
2022-11-30T10:47:17.596Z,33.47
2022-11-30T10:49:50.040Z,29.23
2022-11-30T10:52:23.448Z,35.37
2022-11-30T10:54:56.837Z,31.00
2022-11-30T10:57:31.625Z,32.23
2022-11-30T11:00:03.570Z,32.33
2022-11-30T11:02:36.956Z,31.90
2022-11-30T11:05:21.253Z,30.63
2022-11-30T11:07:58.824Z,31.27
2022-11-30T11:10:34.757Z,27.27
2022-11-30T11:13:03.621Z,29.00
2022-11-30T11:15:34.977Z,26.53
2022-11-30T11:18:30.727Z,26.00
2022-11-30T11:21:07.467Z,25.40
2022-11-30T11:23:38.202Z,24.70
2022-11-30T11:26:08.122Z,23.03
2022-11-30T11:28:39.369Z,21.80
2022-11-30T11:31:22.580Z,22.53
2022-11-30T11:33:55.238Z,22.10
2022-11-30T11:36:28.733Z,23.00
2022-11-30T11:38:57.547Z,23.70
2022-11-30T11:41:27.812Z,23.27
2022-11-30T11:44:03.164Z,22.37
2022-11-30T11:46:34.692Z,21.87
2022-11-30T11:49:05.006Z,19.87
2022-11-30T11:51:34.991Z,20.50
2022-11-30T11:54:07.712Z,19.97
2022-11-30T11:56:37.729Z,22.07
2022-11-30T11:59:16.282Z,20.30
2022-11-30T12:01:55.922Z,22.13
2022-11-30T12:04:37.609Z,20.07
2022-11-30T12:07:18.465Z,19.63
2022-11-30T12:09:56.171Z,21.03
2022-11-30T12:12:24.240Z,18.90
2022-11-30T12:14:52.326Z,18.70
2022-11-30T12:17:35.892Z,16.80
2022-11-30T12:20:14.526Z,19.80
2022-11-30T12:22:55.965Z,19.43
2022-11-30T12:25:28.048Z,21.10
2022-11-30T12:28:05.708Z,23.07
2022-11-30T12:30:41.359Z,18.40
2022-11-30T12:33:16.451Z,20.77
2022-11-30T12:36:00.219Z,18.50
2022-11-30T12:38:38.081Z,20.77
2022-11-30T12:41:29.722Z,19.10
2022-11-30T12:44:08.446Z,21.23
2022-11-30T12:46:46.053Z,20.10
2022-11-30T12:49:30.027Z,22.00
2022-11-30T12:52:12.638Z,20.03
2022-11-30T12:54:49.808Z,20.10
2022-11-30T12:57:26.894Z,23.50
2022-11-30T13:00:04.763Z,22.20
2022-11-30T13:02:51.876Z,23.63
2022-11-30T13:05:30.659Z,24.83
2022-11-30T13:08:03.491Z,26.57
2022-11-30T13:10:36.204Z,20.77
2022-11-30T13:13:05.740Z,23.93
2022-11-30T13:15:36.096Z,24.17
2022-11-30T13:18:05.675Z,23.90
2022-11-30T13:20:40.637Z,25.90
2022-11-30T13:23:14.982Z,21.13
2022-11-30T13:28:56.109Z,23.80
2022-11-30T13:31:26.794Z,22.93
2022-11-30T13:34:01.466Z,25.87
2022-11-30T13:36:36.926Z,24.53
2022-11-30T13:39:25.554Z,27.27
2022-11-30T13:42:30.126Z,27.73
2022-11-30T13:44:58.879Z,28.23
2022-11-30T13:47:34.444Z,27.63
2022-11-30T13:50:08.358Z,30.37
2022-11-30T13:53:20.024Z,29.07
2022-11-30T13:56:02.948Z,29.07
2022-11-30T13:58:32.209Z,30.27
2022-11-30T14:01:44.035Z,30.13
2022-11-30T14:04:36.897Z,30.13
2022-11-30T14:07:09.783Z,33.47
2022-11-30T14:10:00.196Z,33.87
2022-11-30T14:12:49.566Z,34.47
2022-11-30T14:15:46.853Z,29.63
2022-11-30T14:18:22.792Z,33.80
2022-11-30T14:20:56.018Z,32.17
2022-11-30T14:23:30.240Z,31.70
2022-11-30T14:26:10.265Z,32.47
2022-11-30T14:28:43.714Z,39.40
2022-11-30T14:31:17.831Z,36.33
2022-11-30T14:33:54.212Z,36.87
2022-11-30T14:36:24.245Z,37.87
2022-11-30T14:38:52.291Z,36.00
2022-11-30T14:41:23.899Z,39.10
2022-11-30T14:44:07.103Z,41.57
2022-11-30T14:46:36.444Z,42.77
2022-11-30T14:49:13.615Z,39.80
2022-11-30T14:51:43.216Z,42.37
2022-11-30T14:54:33.269Z,44.93
2022-11-30T14:57:12.131Z,46.87
2022-11-30T14:59:57.997Z,43.10
2022-11-30T15:02:35.007Z,46.97
2022-11-30T15:05:04.205Z,41.30
2022-11-30T15:07:32.394Z,43.03
2022-11-30T15:10:05.614Z,42.63
2022-11-30T15:12:36.343Z,41.23
2022-11-30T15:15:15.303Z,43.97
2022-11-30T15:17:52.666Z,45.00
2022-11-30T15:20:30.666Z,43.17
2022-11-30T15:23:02.408Z,38.40
2022-11-30T15:25:38.391Z,40.63
2022-11-30T15:28:09.100Z,37.60
2022-11-30T15:30:39.788Z,38.80
2022-11-30T15:33:08.040Z,40.73
2022-11-30T15:35:57.318Z,38.67
2022-11-30T15:38:27.039Z,44.83
2022-11-30T15:41:03.502Z,45.53
2022-11-30T15:43:37.792Z,44.97
2022-11-30T15:46:07.050Z,41.43
2022-11-30T15:48:39.077Z,40.93
2022-11-30T15:51:07.743Z,43.30
2022-11-30T15:53:48.794Z,37.83
2022-11-30T15:56:25.080Z,34.37
2022-11-30T15:59:05.926Z,33.23
2022-11-30T16:02:01.994Z,30.03
2022-11-30T16:04:42.439Z,30.67
2022-11-30T16:07:18.250Z,28.97
2022-11-30T16:09:46.625Z,29.73
2022-11-30T16:12:24.903Z,29.20
2022-11-30T16:14:54.290Z,31.30
2022-11-30T16:17:22.563Z,33.43
2022-11-30T16:19:50.656Z,33.07
2022-11-30T16:22:19.079Z,32.60
2022-11-30T16:24:47.081Z,33.17
2022-11-30T16:27:17.887Z,32.77
2022-11-30T16:29:51.857Z,32.23
2022-11-30T16:32:21.968Z,34.47
2022-11-30T16:34:50.180Z,34.07
2022-11-30T16:37:18.256Z,35.57
2022-11-30T16:39:46.664Z,31.30
2022-11-30T16:42:15.114Z,30.77
2022-11-30T16:44:43.107Z,31.40
2022-11-30T16:47:11.181Z,31.07
2022-11-30T16:49:40.529Z,29.27
2022-11-30T16:52:13.741Z,33.57
2022-11-30T16:54:41.843Z,33.47
2022-11-30T16:57:10.161Z,35.07
2022-11-30T16:59:38.182Z,35.43
2022-11-30T17:02:19.825Z,34.23
2022-11-30T17:04:49.700Z,29.17
2022-11-30T17:07:18.120Z,31.40
2022-11-30T17:09:46.418Z,31.90
2022-11-30T17:12:14.433Z,31.77
2022-11-30T17:14:42.522Z,32.27
2022-11-30T17:17:10.721Z,32.30
2022-11-30T17:19:39.048Z,32.87
2022-11-30T17:22:08.451Z,33.37
2022-11-30T17:24:36.461Z,30.53
2022-11-30T17:27:05.646Z,33.63
2022-11-30T17:29:33.676Z,35.23
2022-11-30T17:32:01.685Z,36.17
2022-11-30T17:34:29.664Z,33.33
2022-11-30T17:36:57.697Z,35.77
2022-11-30T17:39:27.096Z,36.93
2022-11-30T17:41:55.172Z,38.80
2022-11-30T17:44:23.195Z,35.23
2022-11-30T17:46:51.408Z,34.77
2022-11-30T17:49:19.658Z,35.80
2022-11-30T17:51:47.714Z,39.23
2022-11-30T17:54:15.897Z,38.40
2022-11-30T17:56:46.020Z,38.63
2022-11-30T17:59:14.017Z,35.00
2022-11-30T18:01:42.167Z,37.53
2022-11-30T18:04:10.214Z,37.50
2022-11-30T18:06:38.230Z,38.47
2022-11-30T18:09:06.322Z,36.60
2022-11-30T18:11:34.599Z,36.57
2022-11-30T18:14:04.308Z,38.37
2022-11-30T18:16:33.751Z,38.80
2022-11-30T18:19:01.772Z,38.43
2022-11-30T18:21:33.645Z,36.83
2022-11-30T18:24:01.903Z,33.70
2022-11-30T18:26:29.919Z,37.70
2022-11-30T18:28:59.438Z,39.33
2022-11-30T18:31:29.501Z,38.90
2022-11-30T18:33:58.448Z,37.43
2022-11-30T18:36:26.882Z,40.33
2022-11-30T18:38:55.185Z,44.97
2022-11-30T18:41:26.937Z,43.07
2022-11-30T18:43:55.020Z,44.70
2022-11-30T18:46:23.512Z,46.40
2022-11-30T18:48:54.229Z,44.03
2022-11-30T18:51:24.036Z,43.03
2022-11-30T18:53:59.585Z,41.43
2022-11-30T18:56:28.899Z,43.30
2022-11-30T18:58:58.335Z,39.60
2022-11-30T19:01:27.333Z,39.97
2022-11-30T19:03:58.544Z,42.27
2022-11-30T19:06:28.869Z,42.63
2022-11-30T19:08:57.050Z,43.20
2022-11-30T19:11:25.231Z,42.27
2022-11-30T19:13:55.578Z,41.67
2022-11-30T19:16:24.571Z,42.43
2022-11-30T19:18:53.485Z,45.03
2022-11-30T19:21:24.104Z,43.67
2022-11-30T19:23:52.812Z,47.03
2022-11-30T19:26:20.826Z,46.10
2022-11-30T19:28:48.841Z,45.93
2022-11-30T19:31:18.836Z,45.70
2022-11-30T19:33:49.171Z,45.20
2022-11-30T19:36:19.528Z,45.23
2022-11-30T19:38:51.262Z,44.97
2022-11-30T19:41:20.652Z,45.53
2022-11-30T19:43:53.922Z,47.03
2022-11-30T19:46:25.927Z,47.13
2022-11-30T19:48:58.196Z,48.20
2022-11-30T19:51:26.204Z,48.03
2022-11-30T19:53:57.599Z,48.30
2022-11-30T19:56:28.551Z,51.03
2022-11-30T19:59:04.526Z,49.20
2022-11-30T20:01:34.687Z,47.47
2022-11-30T20:04:03.187Z,46.53
2022-11-30T20:06:33.019Z,49.33
2022-11-30T20:09:03.228Z,49.30
2022-11-30T20:11:34.121Z,44.40
2022-11-30T20:14:02.316Z,48.40
2022-11-30T20:16:30.672Z,45.30
2022-11-30T20:19:01.242Z,44.47
2022-11-30T20:21:33.526Z,45.17
2022-11-30T20:24:05.307Z,44.73
2022-11-30T20:26:35.639Z,49.67
2022-11-30T20:29:06.381Z,44.20
2022-11-30T20:31:38.420Z,47.57
2022-11-30T20:34:08.078Z,45.07
2022-11-30T20:36:36.484Z,48.87
2022-11-30T20:39:06.295Z,47.10
2022-11-30T20:41:34.905Z,47.87
2022-11-30T20:44:03.083Z,48.93
2022-11-30T20:46:33.614Z,49.60
2022-11-30T20:49:02.952Z,49.67
2022-11-30T20:51:34.616Z,47.77
2022-11-30T20:54:05.487Z,47.97
2022-11-30T20:56:36.665Z,49.90
2022-11-30T20:59:06.287Z,45.27
2022-11-30T21:01:34.686Z,45.37
2022-11-30T21:04:02.854Z,48.73
2022-11-30T21:06:33.166Z,49.37
2022-11-30T21:09:01.624Z,47.93
2022-11-30T21:11:34.321Z,47.43
2022-11-30T21:14:03.735Z,48.90
2022-11-30T21:16:32.397Z,53.23
2022-11-30T21:19:01.433Z,48.13
2022-11-30T21:21:31.276Z,46.37
2022-11-30T21:24:01.343Z,47.50
2022-11-30T21:26:31.492Z,47.30
2022-11-30T21:29:04.500Z,48.20
2022-11-30T21:31:33.341Z,46.73
2022-11-30T21:34:02.019Z,51.17
2022-11-30T21:36:30.449Z,50.63
2022-11-30T21:39:05.588Z,52.60
2022-11-30T21:41:35.467Z,46.53
2022-11-30T21:44:05.779Z,52.20
2022-11-30T21:46:34.007Z,50.73
2022-11-30T21:49:02.812Z,54.30
2022-11-30T21:51:32.704Z,53.40
2022-11-30T21:54:04.593Z,54.07
2022-11-30T21:56:34.806Z,52.20
2022-11-30T21:59:04.935Z,53.87
2022-11-30T22:01:34.596Z,46.53
2022-11-30T22:04:04.386Z,45.63
2022-11-30T22:06:36.264Z,47.40
2022-11-30T22:09:07.753Z,47.67
2022-11-30T22:11:37.280Z,46.23
2022-11-30T22:14:08.202Z,50.20
2022-11-30T22:16:36.873Z,47.20
2022-11-30T22:19:06.723Z,44.73
2022-11-30T22:21:36.608Z,48.03
2022-11-30T22:24:06.885Z,45.63
2022-11-30T22:26:37.042Z,43.67
2022-11-30T22:29:08.356Z,46.40
2022-11-30T22:31:38.484Z,45.93
2022-11-30T22:34:07.228Z,42.60
2022-11-30T22:36:37.439Z,44.97
2022-11-30T22:39:07.622Z,41.13
2022-11-30T22:41:35.892Z,45.50
2022-11-30T22:44:04.433Z,43.70
2022-11-30T22:46:34.969Z,45.97
2022-11-30T22:49:05.043Z,43.90
2022-11-30T22:51:36.128Z,42.93
2022-11-30T22:54:04.244Z,47.33
2022-11-30T22:56:34.393Z,41.97
2022-11-30T22:59:02.927Z,42.77
2022-11-30T23:01:33.802Z,44.00
2022-11-30T23:04:04.294Z,46.43
2022-11-30T23:06:35.282Z,42.57
2022-11-30T23:09:04.745Z,45.33
2022-11-30T23:11:33.334Z,47.33
2022-11-30T23:14:01.498Z,46.17
2022-11-30T23:16:29.559Z,49.27
2022-11-30T23:19:00.202Z,51.07
2022-11-30T23:21:37.347Z,46.47
2022-11-30T23:24:10.867Z,49.80
2022-11-30T23:26:39.864Z,50.80
2022-11-30T23:29:11.685Z,50.83
2022-11-30T23:31:41.835Z,48.60
2022-11-30T23:34:16.075Z,48.97
2022-11-30T23:36:44.058Z,46.40
2022-11-30T23:39:14.721Z,49.17
2022-11-30T23:41:43.648Z,51.17
2022-11-30T23:44:12.591Z,48.53
2022-11-30T23:46:41.901Z,51.13
2022-11-30T23:49:12.831Z,48.77
2022-11-30T23:51:40.888Z,49.20
2022-11-30T23:54:08.895Z,44.60
2022-11-30T23:56:36.975Z,46.27
2022-11-30T23:59:05.874Z,47.17
